Ketchum, ID (83340)

12:32 PM MDT on September 30, 2014 (GMT -0600)
Sun Valley Resort | Change Station
CLOSE
Current Station
Personal Weather Station
Location: Sun Valley, ID
Elevation: 5951 ft
Nearby Weather Stations

Elev 5951 ft 43.70 °N, 114.35 °W | Updated 20 seconds ago

Partly Cloudy
Partly Cloudy
51.3 °F
Feels Like 51.3 °F
N
2.0
Wind Variable Wind from South
Gusts 5.0 mph

Today
High -- | Low -- °F
--% Chance of Precip.
Yesterday
High -- | Low -- °F
Precip. -- in
7:33 AM 7:20 PM
Waxing Crescent, 39% visible
Pressure 29.93 in
Visibility 10.0 miles
Clouds Few 1500 ft
Scattered Clouds 5000 ft
Scattered Clouds 12000 ft
Dew Point 41 °F
Humidity 67%
Rainfall 0.00 in
Snow Depth 0 in , 1 in , 1 in
UV 3.0 out of 12
Pollen 7.90 out of 12
Air Quality Not available.
Flu Activity Not available.
METAR KSUN 301747Z 15003KT 10SM FEW015 SCT050 SCT120 11/08 A2993

More Conditions Fewer Conditions

Pressure 29.93 in
Visibility 10.0 miles
Clouds Few 1500 ft
Scattered Clouds 5000 ft
Scattered Clouds 12000 ft
Dew Point 41 °F
Humidity 67%
Rainfall 0.00 in
Snow Depth 0 in , 1 in , 1 in
UV 3.0 out of 12
Pollen 7.90 out of 12
Air Quality Not available.
Flu Activity Not available.
METAR KSUN 301747Z 15003KT 10SM FEW015 SCT050 SCT120 11/08 A2993

More Conditions Fewer Conditions

10-Day Weather Forecast

Almanac

Astronomy

Sep. 30, 2014 Rise Set
Actual Time 7:33 AM MDT 7:20 PM MDT
Civil Twilight 7:05 AM MDT 7:48 PM MDT
Nautical Twilight 6:31 AM MDT 8:21 PM MDT
Astronomical Twilight 5:58 AM MDT 8:55 PM MDT
Moon 1:54 PM MDT 11:45 PM MDT
Length of Visible Light 12h 43m
Length of Day
11h 46m
Tomorrow will be 2m 57s shorter.
Waxing Crescent, 39% of the Moon is Illuminated
Today
Waxing Crescent
Oct 1
First Quarter
Oct 8
Full
Oct 15
Last Quarter
Oct 23
New

Today's Extremes

State Highs State Lows

Community

WunderPhotos

Upload Photos

1,757,714 photos uploaded!

Nearby

Snow Depth

Station Depth Elevation
Hidden Lake 0 in 5040 ft
Hemlock Butte 1 in 5810 ft
Somsen Ranch 1 in 6800 ft
Myrtle Creek 0 in 3520 ft
Elk Butte 0 in 5690 ft

Earthquake Activity

City Distance Mag. Time & Date
No recent earthquake activity has been reported nearby.
Minimum magnitude displayed is 2.5.

Coastal Water Temperatures

Place Temperature
No Stations Reporting

Nearby Weather Stations